Time;durP1;ratioP1;P1;durP2;ratioP2;P2;SDS_P1;SDS_P2;PMS_P1;PMS_P2;Temp;Humidity;BMP_temperature;BMP_pressure;BME280_temperature;BME280_humidity;BME280_pressure;Samples;Min_cycle;Max_cycle;Signal;HPM_P1;HPM_P2
2021/07/13 00:01:07;;;;;;;16.40;10.10;;;;;;;24.59;60.90;100085.50;5042980;28;20039;-58
2021/07/13 00:03:33;;;;;;;13.95;9.45;;;;;;;24.57;60.75;100079.47;5059623;28;20361;-57
2021/07/13 00:06:00;;;;;;;16.27;9.88;;;;;;;24.57;60.81;100080.34;5062699;28;20052;-57
2021/07/13 00:08:26;;;;;;;14.15;9.98;;;;;;;24.53;61.65;100092.13;5047850;28;20353;-58
2021/07/13 00:10:52;;;;;;;15.73;9.95;;;;;;;24.51;61.50;100083.41;5041631;28;20028;-57
2021/07/13 00:13:18;;;;;;;14.50;10.23;;;;;;;24.49;61.35;100084.50;5042778;28;20037;-57
2021/07/13 00:15:44;;;;;;;15.35;9.52;;;;;;;24.35;61.60;100088.16;5048466;28;20037;-57
2021/07/13 00:18:12;;;;;;;15.85;9.38;;;;;;;24.10;61.65;100037.00;5062446;28;20045;-57
2021/07/13 00:20:38;;;;;;;13.93;9.90;;;;;;;24.39;61.69;100087.81;5062647;28;20078;-57
2021/07/13 00:23:04;;;;;;;12.80;9.73;;;;;;;24.38;61.81;100080.00;5062160;28;20052;-57
2021/07/13 00:25:32;;;;;;;13.73;9.85;;;;;;;24.39;61.76;100076.41;5058571;28;20056;-57
2021/07/13 00:27:58;;;;;;;15.93;9.57;;;;;;;24.38;61.61;100069.41;5047552;28;20055;-57
2021/07/13 00:30:25;;;;;;;12.93;9.18;;;;;;;24.32;62.06;100069.84;5062376;28;20052;-57
2021/07/13 00:32:53;;;;;;;14.30;9.93;;;;;;;24.27;61.77;100057.78;5062256;28;20061;-58
2021/07/13 00:35:19;;;;;;;16.70;10.10;;;;;;;24.34;61.63;100075.88;5062226;28;20048;-59
2021/07/13 00:37:46;;;;;;;18.20;9.43;;;;;;;24.29;61.89;100071.75;5062181;28;20067;-58
2021/07/13 00:40:14;;;;;;;13.63;9.38;;;;;;;24.29;62.07;100079.69;5062359;28;20047;-57
2021/07/13 00:42:42;;;;;;;13.98;9.90;;;;;;;24.23;61.89;100066.91;5062463;28;20043;-57
2021/07/13 00:45:08;;;;;;;16.40;9.85;;;;;;;24.29;61.33;100073.56;5061775;28;20052;-57
2021/07/13 00:47:35;;;;;;;14.75;9.77;;;;;;;24.30;61.27;100076.09;5042289;28;20041;-57
2021/07/13 00:50:02;;;;;;;15.93;9.82;;;;;;;24.20;60.94;100074.22;5042327;28;20041;-57
2021/07/13 00:52:28;;;;;;;16.52;9.40;;;;;;;24.23;61.14;100069.56;5042384;28;20348;-57
2021/07/13 00:54:55;;;;;;;12.25;9.75;;;;;;;24.21;60.71;100073.28;5042250;28;20053;-57
2021/07/13 00:57:21;;;;;;;13.40;9.52;;;;;;;24.16;60.94;100084.19;5060689;28;20045;-57
2021/07/13 00:59:47;;;;;;;13.63;9.15;;;;;;;24.18;61.22;100084.09;5062345;28;20013;-57
2021/07/13 01:02:15;;;;;;;16.15;9.90;;;;;;;23.94;61.26;100050.47;5062136;28;20243;-58
2021/07/13 01:04:50;;;;;;;14.40;9.50;;;;;;;24.17;61.29;100077.09;5062017;28;20067;-58
2021/07/13 01:07:38;;;;;;;10.48;8.63;;;;;;;24.17;60.99;100080.59;5062025;28;20048;-57
2021/07/13 01:10:32;;;;;;;15.82;10.07;;;;;;;24.09;61.28;100081.13;5062115;28;20056;-57
2021/07/13 01:13:13;;;;;;;12.30;9.65;;;;;;;24.09;60.86;100082.94;5062134;28;20047;-57
2021/07/13 01:15:47;;;;;;;13.02;9.88;;;;;;;23.85;60.41;100049.31;5057752;28;20048;-57
2021/07/13 01:18:27;;;;;;;11.90;9.63;;;;;;;23.77;60.07;100047.22;5041966;28;20041;-57
2021/07/13 01:21:21;;;;;;;18.92;10.68;;;;;;;24.01;60.34;100090.59;5042086;28;20041;-57
2021/07/13 01:23:56;;;;;;;19.52;9.68;;;;;;;23.99;60.12;100090.69;5042109;28;20041;-57
2021/07/13 01:26:48;;;;;;;14.57;9.68;;;;;;;23.99;60.66;100097.81;5052090;28;20044;-57
2021/07/13 01:29:16;;;;;;;19.67;10.30;;;;;;;23.95;60.74;100105.94;5061978;28;20051;-57
2021/07/13 01:31:47;;;;;;;15.45;9.40;;;;;;;23.86;61.07;100084.56;5061756;28;20068;-57
2021/07/13 01:34:26;;;;;;;13.80;9.23;;;;;;;23.68;60.75;100053.16;5061846;28;20353;-57
2021/07/13 01:37:03;;;;;;;13.30;10.63;;;;;;;23.94;60.80;100098.09;5051417;28;20033;-57
2021/07/13 01:39:31;;;;;;;14.82;9.60;;;;;;;23.65;60.72;100052.53;5045511;28;20037;-57
2021/07/13 01:42:06;;;;;;;18.08;10.80;;;;;;;23.60;61.37;100051.06;5045710;28;20047;-57
2021/07/13 01:44:33;;;;;;;23.50;10.85;;;;;;;23.82;61.92;100086.56;5045508;28;20055;-57
2021/07/13 01:46:59;;;;;;;17.65;10.57;;;;;;;23.78;62.25;100090.38;5060498;28;20052;-56
2021/07/13 01:49:27;;;;;;;15.63;9.98;;;;;;;23.82;61.92;100083.91;5065444;28;20602;-56
2021/07/13 01:51:56;;;;;;;12.75;9.98;;;;;;;23.79;61.14;100092.06;5065516;28;20056;-57
2021/07/13 01:54:25;;;;;;;13.98;9.73;;;;;;;23.53;61.40;100038.34;5065195;28;20033;-57
2021/07/13 01:56:57;;;;;;;16.02;10.80;;;;;;;23.55;61.64;100042.59;5051280;28;20049;-57
2021/07/13 01:59:24;;;;;;;16.23;9.98;;;;;;;23.87;61.88;100089.78;5045072;28;20040;-57
2021/07/13 02:01:56;;;;;;;16.67;9.77;;;;;;;23.67;62.07;100045.31;5045148;28;20048;-57
2021/07/13 02:04:26;;;;;;;;;;;;;;;23.89;62.56;100084.38;5058749;28;20045;-57
2021/07/13 02:06:53;;;;;;;16.70;10.30;;;;;;;23.93;61.91;100093.78;5064965;28;19928;-57
2021/07/13 02:09:19;;;;;;;19.20;10.63;;;;;;;23.93;62.25;100085.84;5065046;28;20352;-57
2021/07/13 02:11:45;;;;;;;14.68;9.45;;;;;;;23.97;62.04;100083.81;5064988;28;20040;-57
2021/07/13 02:14:13;;;;;;;14.35;10.00;;;;;;;23.92;62.35;100066.47;5064992;28;20048;-57
2021/07/13 02:16:39;;;;;;;19.17;10.70;;;;;;;24.02;62.23;100093.13;5053058;28;20048;-57
2021/07/13 02:19:06;;;;;;;17.38;10.98;;;;;;;23.95;62.37;100082.13;5044810;28;20021;-58
2021/07/13 02:21:32;;;;;;;17.55;9.50;;;;;;;24.03;62.67;100088.66;5044823;28;20047;-57
2021/07/13 02:23:59;;;;;;;14.00;9.52;;;;;;;24.09;62.22;100088.25;5044800;28;20037;-57
2021/07/13 02:26:49;;;;;;;15.35;10.35;;;;;;;24.08;62.89;100081.25;5054343;28;20059;-57
2021/07/13 02:29:21;;;;;;;16.83;10.25;;;;;;;24.11;62.71;100086.31;5064690;28;20041;-57
2021/07/13 02:31:55;;;;;;;14.50;10.55;;;;;;;23.87;63.30;100046.59;5064566;28;20285;-58
2021/07/13 02:34:26;;;;;;;15.98;9.93;;;;;;;24.17;62.66;100092.97;5064370;28;20045;-58
2021/07/13 02:36:56;;;;;;;14.00;9.80;;;;;;;24.21;62.71;100092.63;5051050;28;20196;-58
2021/07/13 02:39:22;;;;;;;16.60;10.13;;;;;;;24.19;62.73;100083.97;5044539;28;20037;-56
2021/07/13 02:41:51;;;;;;;12.43;10.18;;;;;;;23.95;62.49;100039.78;5044500;28;20283;-57
2021/07/13 02:44:20;;;;;;;17.10;10.60;;;;;;;24.29;62.74;100089.44;5044400;28;20041;-56
2021/07/13 02:46:47;;;;;;;14.30;10.27;;;;;;;24.33;62.57;100087.41;5056522;28;20036;-57
2021/07/13 02:49:22;;;;;;;14.95;9.45;;;;;;;24.16;62.59;100040.97;5064045;28;20037;-58
2021/07/13 02:51:53;;;;;;;19.50;10.50;;;;;;;24.51;62.71;100082.59;5064325;28;20040;-58
2021/07/13 02:54:22;;;;;;;20.27;10.18;;;;;;;24.27;62.43;100044.56;5064155;28;20056;-58
2021/07/13 02:56:49;;;;;;;21.25;10.52;;;;;;;24.57;62.47;100104.19;5051583;28;20503;-59
2021/07/13 02:59:22;;;;;;;19.27;10.57;;;;;;;24.39;62.50;100052.56;5043891;28;20281;-59
2021/07/13 03:01:49;;;;;;;17.50;10.77;;;;;;;24.70;61.91;100090.91;5044008;28;20037;-57
2021/07/13 03:04:20;;;;;;;17.33;10.38;;;;;;;24.75;62.33;100096.69;5056019;28;20250;-58
2021/07/13 03:06:47;;;;;;;17.13;9.70;;;;;;;24.81;61.67;100090.94;5063932;28;20041;-58
2021/07/13 03:09:14;;;;;;;13.50;9.70;;;;;;;24.85;60.35;100078.28;5063759;28;20041;-58
2021/07/13 03:11:41;;;;;;;15.35;9.90;;;;;;;24.86;59.72;100076.50;5063754;28;20071;-59
2021/07/13 03:14:11;;;;;;;15.30;10.27;;;;;;;24.72;59.82;100037.81;5063610;28;20032;-57
2021/07/13 03:16:38;;;;;;;22.23;10.13;;;;;;;25.04;59.92;100063.66;5052993;28;20045;-57
2021/07/13 03:19:04;;;;;;;16.98;9.80;;;;;;;25.18;60.16;100084.66;5043497;28;20334;-58
2021/07/13 03:21:34;;;;;;;15.20;9.63;;;;;;;25.25;59.59;100088.53;5043593;28;20064;-58
2021/07/13 03:24:03;;;;;;;15.45;9.88;;;;;;;25.37;58.60;100085.91;5043563;28;20059;-57
2021/07/13 03:26:33;;;;;;;15.38;8.85;;;;;;;25.37;57.72;100077.97;5053005;28;20040;-57
2021/07/13 03:29:00;;;;;;;12.40;9.57;;;;;;;25.47;57.41;100078.97;5063562;28;20315;-57
2021/07/13 03:31:27;;;;;;;14.55;9.27;;;;;;;25.55;57.51;100084.50;5063322;28;20075;-57
2021/07/13 03:33:55;;;;;;;16.02;8.93;;;;;;;25.58;56.43;100072.81;5063280;28;20052;-57
2021/07/13 03:36:22;;;;;;;13.38;9.25;;;;;;;25.70;55.95;100089.59;5054887;28;20040;-56
2021/07/13 03:38:49;;;;;;;20.98;9.70;;;;;;;25.84;54.58;100090.19;5043218;28;20040;-57
2021/07/13 03:41:15;;;;;;;15.30;9.27;;;;;;;26.00;53.79;100084.53;5043227;28;20053;-57
2021/07/13 03:43:42;;;;;;;15.77;8.65;;;;;;;26.15;53.49;100082.47;5043113;28;20041;-57
2021/07/13 03:46:10;;;;;;;18.05;9.73;;;;;;;26.24;53.64;100083.53;5049660;28;20288;-57
2021/07/13 03:48:37;;;;;;;17.25;9.82;;;;;;;26.46;53.68;100092.41;5062982;28;20044;-57
2021/07/13 03:51:03;;;;;;;16.90;8.85;;;;;;;26.67;53.23;100082.66;5062884;28;20041;-57
2021/07/13 03:53:28;;;;;;;16.52;9.27;;;;;;;26.68;53.34;100086.19;5062998;28;20361;-57
2021/07/13 03:55:54;;;;;;;14.00;9.05;;;;;;;26.60;52.86;100089.44;5058504;28;20022;-57
2021/07/13 03:58:20;;;;;;;21.35;9.93;;;;;;;26.67;52.69;100090.63;5042293;28;20036;-58
2021/07/13 04:00:46;;;;;;;18.23;10.52;;;;;;;26.67;52.98;100087.97;5042794;28;20013;-57
2021/07/13 04:03:12;;;;;;;19.88;9.05;;;;;;;26.56;53.00;100055.28;5046338;28;20325;-58
2021/07/13 04:05:39;;;;;;;18.73;9.07;;;;;;;26.77;53.24;100084.59;5062763;28;20052;-58
2021/07/13 04:08:05;;;;;;;11.40;8.57;;;;;;;26.81;53.33;100086.88;5062803;28;20037;-58
2021/07/13 04:10:31;;;;;;;15.63;8.55;;;;;;;26.84;54.26;100088.44;5062697;28;20037;-58
2021/07/13 04:12:57;;;;;;;19.80;8.60;;;;;;;26.83;53.77;100084.06;5062741;28;20048;-58
2021/07/13 04:15:23;;;;;;;12.63;8.40;;;;;;;26.90;53.84;100081.75;5062481;28;20037;-57
2021/07/13 04:17:49;;;;;;;13.82;8.48;;;;;;;26.99;53.40;100087.16;5042627;28;20331;-57
2021/07/13 04:20:15;;;;;;;16.83;8.88;;;;;;;27.06;53.12;100081.31;5042567;28;20295;-57
2021/07/13 04:22:43;;;;;;;15.55;8.63;;;;;;;27.10;52.82;100078.25;5045829;28;20048;-57
2021/07/13 04:25:10;;;;;;;17.05;8.90;;;;;;;27.16;52.73;100068.91;5062443;28;20337;-58
2021/07/13 04:27:36;;;;;;;15.20;8.25;;;;;;;27.25;52.57;100072.59;5062336;28;20056;-56
2021/07/13 04:30:05;;;;;;;13.10;7.80;;;;;;;27.29;52.05;100077.53;5062427;28;20058;-56
2021/07/13 04:32:31;;;;;;;16.65;7.30;;;;;;;27.37;51.95;100075.06;5094640;28;20071;-57
2021/07/13 04:34:57;;;;;;;13.20;7.43;;;;;;;27.43;51.62;100078.19;5062288;28;20052;-57
2021/07/13 04:37:24;;;;;;;12.68;7.47;;;;;;;27.46;50.34;100077.91;5046213;28;20017;-57
2021/07/13 04:39:51;;;;;;;15.05;7.55;;;;;;;27.52;51.68;100072.06;5042318;28;20040;-57
2021/07/13 04:42:17;;;;;;;12.95;7.50;;;;;;;27.57;50.91;100069.84;5042315;28;20345;-57
2021/07/13 04:44:43;;;;;;;12.98;6.35;;;;;;;27.62;48.85;100072.97;5042384;28;20025;-57
2021/07/13 04:47:09;;;;;;;13.10;6.45;;;;;;;27.70;49.89;100070.44;5056090;28;20029;-58
2021/07/13 04:49:35;;;;;;;13.10;6.65;;;;;;;27.76;49.38;100068.25;5062284;28;20048;-58
2021/07/13 04:52:01;;;;;;;10.07;5.60;;;;;;;27.89;49.08;100068.84;5062229;28;20021;-57
2021/07/13 04:54:31;;;;;;;12.75;6.03;;;;;;;27.93;48.74;100075.56;5062307;28;20040;-56
2021/07/13 04:57:01;;;;;;;7.47;4.90;;;;;;;27.97;47.05;100071.66;5061932;28;20032;-56
2021/07/13 04:59:26;;;;;;;9.70;5.10;;;;;;;28.09;47.00;100061.81;5062032;28;20033;-57
2021/07/13 05:01:52;;;;;;;12.27;5.00;;;;;;;28.11;45.85;100064.31;5062128;28;20405;-57
2021/07/13 05:04:18;;;;;;;9.98;4.88;;;;;;;28.21;45.35;100060.69;5062097;28;20380;-57
2021/07/13 05:06:44;;;;;;;9.75;4.82;;;;;;;28.25;44.84;100061.25;5061848;28;20013;-57
2021/07/13 05:09:10;;;;;;;7.70;4.70;;;;;;;28.38;46.03;100064.50;5063683;28;20306;-57
2021/07/13 05:11:37;;;;;;;6.25;4.45;;;;;;;28.55;44.56;100059.47;5065620;28;20250;-57
2021/07/13 05:14:03;;;;;;;5.32;4.18;;;;;;;28.68;43.08;100068.03;5065597;28;20132;-57
2021/07/13 05:16:30;;;;;;;5.47;4.05;;;;;;;28.70;43.69;100052.75;5056575;28;20060;-57
2021/07/13 05:18:59;;;;;;;5.38;4.00;;;;;;;28.77;42.78;100058.34;5045930;28;20045;-57
2021/07/13 05:21:24;;;;;;;20.60;5.13;;;;;;;28.99;43.40;100062.56;5045789;28;20049;-57
2021/07/13 05:23:50;;;;;;;6.20;4.20;;;;;;;29.04;42.80;100060.28;5028091;28;20059;-58
2021/07/13 05:26:16;;;;;;;8.75;4.28;;;;;;;29.25;42.39;100056.63;5051934;28;20021;-57
2021/07/13 05:28:42;;;;;;;9.20;3.95;;;;;;;29.38;42.48;100057.13;5065662;28;20033;-58
2021/07/13 05:31:08;;;;;;;4.72;4.10;;;;;;;29.39;41.95;100064.16;5065696;28;20067;-58
2021/07/13 05:33:34;;;;;;;6.50;4.47;;;;;;;29.51;42.62;100059.47;5065580;28;20045;-58
2021/07/13 05:36:00;;;;;;;4.40;3.90;;;;;;;29.46;42.39;100060.91;5061552;28;20013;-58
2021/07/13 05:38:26;;;;;;;7.63;4.00;;;;;;;29.43;42.34;100062.88;5045478;28;20266;-58
2021/07/13 05:40:52;;;;;;;6.07;4.22;;;;;;;29.54;41.47;100058.34;5047068;28;20048;-58
2021/07/13 05:43:18;;;;;;;4.57;3.63;;;;;;;29.47;42.32;100071.41;5064852;28;20047;-58
2021/07/13 05:45:46;;;;;;;7.43;4.50;;;;;;;29.38;41.74;100067.81;5064905;28;20096;-58
2021/07/13 05:48:12;;;;;;;6.40;4.10;;;;;;;29.51;41.29;100062.13;5065238;28;20053;-57
2021/07/13 05:50:38;;;;;;;9.23;4.03;;;;;;;29.62;41.13;100069.13;5065352;28;20021;-57
2021/07/13 05:53:04;;;;;;;8.45;4.20;;;;;;;29.60;40.36;100066.63;5065317;28;20043;-57
2021/07/13 05:55:30;;;;;;;6.93;4.38;;;;;;;29.75;40.38;100061.63;5065138;28;20021;-57
2021/07/13 05:57:56;;;;;;;5.15;4.40;;;;;;;29.78;40.94;100061.31;5045769;28;20033;-57
2021/07/13 06:00:22;;;;;;;5.40;3.92;;;;;;;29.69;39.06;100051.53;5045057;28;20033;-58
2021/07/13 06:02:48;;;;;;;5.47;4.03;;;;;;;29.57;41.18;100055.38;5045194;28;20080;-58
2021/07/13 06:05:14;;;;;;;5.45;4.22;;;;;;;29.73;40.75;100052.06;5065030;28;20249;-58
2021/07/13 06:07:48;;;;;;;6.05;4.03;;;;;;;29.92;39.98;100059.19;5064913;28;20052;-60
2021/07/13 06:10:15;;;;;;;6.07;4.13;;;;;;;30.11;39.68;100047.53;5064792;28;20059;-58
2021/07/13 06:12:42;;;;;;;6.03;4.07;;;;;;;30.20;39.65;100045.78;5064708;28;20052;-58
2021/07/13 06:15:09;;;;;;;7.18;4.50;;;;;;;30.28;39.39;100054.72;5064713;28;20048;-57
2021/07/13 06:17:35;;;;;;;5.13;4.43;;;;;;;30.50;39.25;100049.09;5048485;28;20061;-58
2021/07/13 06:20:03;;;;;;;6.60;4.13;;;;;;;30.20;39.65;100051.13;5044376;28;20045;-57
2021/07/13 06:22:29;;;;;;;5.18;4.35;;;;;;;30.28;39.19;100046.69;5044357;28;20072;-58
2021/07/13 06:24:55;;;;;;;6.03;3.92;;;;;;;30.26;39.33;100051.38;5044749;28;20048;-57
2021/07/13 06:27:22;;;;;;;6.07;3.92;;;;;;;30.38;38.46;100037.78;5058848;28;20048;-58
2021/07/13 06:29:47;;;;;;;9.05;4.05;;;;;;;30.60;38.83;100050.72;5064392;28;20049;-58
2021/07/13 06:32:13;;;;;;;4.90;4.20;;;;;;;30.52;38.99;100039.09;5063956;28;20199;-58
2021/07/13 06:34:39;;;;;;;8.68;4.07;;;;;;;30.33;39.58;100048.94;5063981;28;20036;-58
2021/07/13 06:37:05;;;;;;;4.88;4.18;;;;;;;30.51;38.88;100045.44;5063455;28;20021;-58
2021/07/13 06:39:31;;;;;;;5.10;4.30;;;;;;;30.42;38.88;100053.38;5063171;28;20021;-58
2021/07/13 06:41:57;;;;;;;4.35;3.95;;;;;;;30.65;38.88;100052.91;5063794;28;20028;-58
2021/07/13 06:44:23;;;;;;;4.90;4.20;;;;;;;30.61;38.82;100049.72;5063619;28;20056;-58
2021/07/13 06:46:48;;;;;;;6.35;5.63;;;;;;;30.68;38.84;100060.63;5062621;28;20023;-57
2021/07/13 06:49:14;;;;;;;5.78;4.40;;;;;;;30.55;38.71;100054.84;5063560;28;20233;-57
2021/07/13 06:51:40;;;;;;;5.20;4.30;;;;;;;30.52;38.71;100057.81;5062241;28;20071;-57
2021/07/13 06:54:06;;;;;;;5.35;4.28;;;;;;;30.69;38.51;100056.97;5063467;28;20260;-58
2021/07/13 06:56:32;;;;;;;6.63;4.70;;;;;;;30.78;37.65;100056.06;5063309;28;20048;-58
2021/07/13 06:58:58;;;;;;;6.55;4.80;;;;;;;30.88;38.13;100039.88;5063098;28;20088;-58
2021/07/13 07:01:23;;;;;;;6.10;4.72;;;;;;;31.01;38.09;100052.88;5063008;28;20028;-58
2021/07/13 07:03:49;;;;;;;5.65;4.40;;;;;;;31.02;37.49;100051.06;5061404;28;20340;-58
2021/07/13 07:06:15;;;;;;;5.78;4.80;;;;;;;30.84;37.89;100043.03;5062909;28;20253;-57
2021/07/13 07:08:41;;;;;;;5.32;4.78;;;;;;;30.93;36.59;100048.28;5063243;28;20051;-57
2021/07/13 07:11:08;;;;;;;4.47;4.07;;;;;;;30.94;37.82;100038.41;5062948;28;20045;-58
2021/07/13 07:13:33;;;;;;;9.45;5.10;;;;;;;31.05;36.38;100046.22;5061294;28;20210;-58
2021/07/13 07:15:59;;;;;;;9.88;4.88;;;;;;;31.07;38.24;100044.25;5062646;28;20221;-58
2021/07/13 07:18:25;;;;;;;7.80;4.70;;;;;;;31.21;37.49;100040.16;5062663;28;20241;-58
2021/07/13 07:20:51;;;;;;;6.85;4.45;;;;;;;31.19;36.10;100047.47;5062195;28;20047;-58
2021/07/13 07:23:17;;;;;;;6.63;5.03;;;;;;;31.13;35.95;100035.56;5061755;28;20211;-58
2021/07/13 07:25:43;;;;;;;8.00;4.63;;;;;;;31.01;36.53;100039.50;5062715;28;20048;-58
2021/07/13 07:28:11;;;;;;;5.28;4.60;;;;;;;30.98;37.21;100039.78;5062297;28;20053;-58
2021/07/13 07:30:38;;;;;;;8.23;5.00;;;;;;;31.15;37.33;100033.59;5063002;28;20048;-58
2021/07/13 07:33:04;;;;;;;7.75;4.70;;;;;;;31.14;36.09;100031.91;5062275;28;20380;-58
2021/07/13 07:35:30;;;;;;;6.15;5.05;;;;;;;31.05;36.41;100035.50;5048589;28;20349;-58
2021/07/13 07:37:57;;;;;;;7.45;4.85;;;;;;;31.31;36.06;100032.84;5056206;28;20044;-58
2021/07/13 07:40:23;;;;;;;9.93;5.28;;;;;;;31.16;37.62;100031.75;5042989;28;20049;-58
2021/07/13 07:42:51;;;;;;;5.93;5.07;;;;;;;31.12;35.75;99993.75;5042107;28;20052;-59
2021/07/13 07:45:20;;;;;;;5.80;5.07;;;;;;;31.29;34.57;100021.44;5047508;28;20060;-59
2021/07/13 07:47:46;;;;;;;7.03;5.13;;;;;;;31.40;35.69;100031.03;5044355;28;20048;-59
2021/07/13 07:50:12;;;;;;;6.60;4.78;;;;;;;31.36;36.49;100034.19;5043036;28;20064;-58
2021/07/13 07:52:39;;;;;;;6.55;4.35;;;;;;;31.44;36.39;100024.38;5043043;28;20053;-58
2021/07/13 07:55:06;;;;;;;7.15;4.72;;;;;;;31.42;37.54;100029.03;5054155;28;20063;-59
2021/07/13 07:57:32;;;;;;;5.10;4.25;;;;;;;31.47;35.87;100021.38;5063065;28;20048;-59
2021/07/13 07:59:58;;;;;;;10.40;5.00;;;;;;;31.55;35.44;100025.06;5063833;28;20032;-57
2021/07/13 08:02:24;;;;;;;6.18;4.70;;;;;;;31.70;34.79;100022.63;5063560;28;20105;-58
2021/07/13 08:04:49;;;;;;;8.15;5.05;;;;;;;31.53;35.61;100019.06;5063453;28;20029;-58
2021/07/13 08:07:15;;;;;;;6.22;4.80;;;;;;;31.85;34.47;100021.03;5063676;28;20017;-58
2021/07/13 08:09:41;;;;;;;5.97;4.65;;;;;;;31.58;34.44;100019.41;5062585;28;20029;-57
2021/07/13 08:12:07;;;;;;;11.48;5.30;;;;;;;31.79;34.52;100014.47;5044047;28;20056;-57
2021/07/13 08:14:33;;;;;;;8.43;5.13;;;;;;;31.95;34.33;100018.19;5055323;28;20047;-57
2021/07/13 08:16:59;;;;;;;6.32;5.00;;;;;;;32.03;34.12;100010.19;5043492;28;20029;-57
2021/07/13 08:19:25;;;;;;;8.50;5.40;;;;;;;31.93;33.47;100002.28;5057063;28;20214;-58
2021/07/13 08:21:51;;;;;;;5.70;4.80;;;;;;;31.99;33.82;99995.44;5059281;28;20035;-57
2021/07/13 08:24:16;;;;;;;9.45;4.65;;;;;;;32.07;33.76;100008.00;5050364;28;20030;-57
2021/07/13 08:26:43;;;;;;;6.88;5.32;;;;;;;32.08;34.43;99999.81;5043130;28;20230;-57
2021/07/13 08:29:08;;;;;;;5.88;5.28;;;;;;;31.94;34.62;100000.44;5044112;28;20048;-57
2021/07/13 08:31:34;;;;;;;10.43;5.35;;;;;;;32.10;34.36;99997.81;5052383;28;20322;-58
2021/07/13 08:34:00;;;;;;;10.60;5.50;;;;;;;32.22;34.00;99994.84;5063133;28;20040;-57
2021/07/13 08:36:26;;;;;;;6.22;5.18;;;;;;;32.29;33.67;99990.47;5063355;28;20036;-57
2021/07/13 08:38:52;;;;;;;10.82;5.13;;;;;;;32.32;33.26;100000.88;5063234;28;20055;-57
2021/07/13 08:41:22;;;;;;;9.55;5.35;;;;;;;32.24;33.18;99987.44;5063207;28;20322;-57
2021/07/13 08:43:50;;;;;;;8.32;5.50;;;;;;;32.47;34.50;99993.84;5063223;28;20064;-56
2021/07/13 08:46:17;;;;;;;7.68;4.90;;;;;;;32.35;35.13;99987.97;5063399;28;20047;-57
2021/07/13 08:48:43;;;;;;;6.43;5.03;;;;;;;32.35;33.16;99997.84;5062191;28;20053;-57
2021/07/13 08:51:08;;;;;;;5.65;5.10;;;;;;;32.41;32.90;99990.97;5050754;28;20033;-56
2021/07/13 08:53:34;;;;;;;9.30;5.28;;;;;;;32.43;33.43;99981.75;5057818;28;20035;-56
2021/07/13 08:56:01;;;;;;;7.05;5.05;;;;;;;32.46;34.42;99984.09;5062740;28;20037;-56
2021/07/13 08:58:27;;;;;;;7.97;5.57;;;;;;;32.25;34.95;99986.44;5062832;28;20280;-56
2021/07/13 09:00:53;;;;;;;7.00;5.75;;;;;;;32.24;34.25;99971.38;5062863;28;20055;-56
2021/07/13 09:03:21;;;;;;;8.27;5.60;;;;;;;32.43;33.97;99976.41;5061674;28;20271;-56
2021/07/13 09:05:56;;;;;;;9.85;5.80;;;;;;;32.44;32.54;99983.44;5063089;28;20049;-56
2021/07/13 09:08:30;;;;;;;7.45;6.10;;;;;;;32.61;33.82;99978.06;5063206;28;20056;-57
2021/07/13 09:11:06;;;;;;;9.65;5.53;;;;;;;32.57;33.40;99982.94;5061934;28;20322;-56
2021/07/13 09:13:36;;;;;;;7.97;5.28;;;;;;;32.67;32.78;99962.13;5043176;28;20056;-57
2021/07/13 09:16:05;;;;;;;6.32;4.93;;;;;;;32.76;32.82;99976.41;5058744;28;20289;-56
2021/07/13 09:18:36;;;;;;;8.82;5.57;;;;;;;32.75;33.39;99974.75;5050842;28;20282;-56
2021/07/13 09:21:16;;;;;;;7.15;5.30;;;;;;;32.61;33.29;99976.22;5043074;28;20037;-56
2021/07/13 09:24:12;;;;;;;8.43;5.83;;;;;;;32.39;34.87;99931.31;5043247;28;20053;-56
2021/07/13 09:26:59;;;;;;;8.30;5.28;;;;;;;32.20;32.71;99936.03;5043095;28;20045;-56
2021/07/13 09:29:42;;;;;;;8.40;5.78;;;;;;;32.57;32.58;99955.28;5043024;28;20045;-56
2021/07/13 09:32:32;;;;;;;8.18;5.60;;;;;;;31.89;33.12;99931.28;5048226;28;20060;-56
2021/07/13 09:35:03;;;;;;;7.35;5.80;;;;;;;32.55;33.39;99962.66;5042861;28;20070;-57
2021/07/13 09:37:30;;;;;;;;;;;;;;;32.70;34.15;99969.03;5043254;28;20049;-57
2021/07/13 09:40:05;;;;;;;6.22;5.63;;;;;;;32.72;33.02;99968.88;5042760;28;19943;-57
2021/07/13 09:42:34;;;;;;;9.52;5.38;;;;;;;32.55;33.61;99922.41;5043880;28;20052;-56
2021/07/13 09:45:21;;;;;;;8.70;6.13;;;;;;;32.72;35.38;99961.66;5042807;28;20045;-57
2021/07/13 09:47:48;;;;;;;6.90;5.82;;;;;;;32.68;34.94;99961.16;5049505;28;20056;-57
2021/07/13 09:50:33;;;;;;;11.05;5.95;;;;;;;32.52;35.50;99970.03;5043481;28;20052;-56
2021/07/13 09:53:00;;;;;;;9.80;6.75;;;;;;;32.62;35.25;99944.88;5045265;28;20037;-56
2021/07/13 09:55:28;;;;;;;8.43;5.95;;;;;;;32.63;32.67;99954.59;5046293;28;20071;-55
2021/07/13 09:58:06;;;;;;;11.60;6.45;;;;;;;32.78;33.19;99958.28;5061430;28;20104;-56
2021/07/13 10:00:33;;;;;;;10.05;5.60;;;;;;;32.79;33.58;99951.91;5062569;28;20048;-56
2021/07/13 10:02:59;;;;;;;6.25;5.65;;;;;;;32.64;33.62;99951.75;5054506;28;20049;-55
2021/07/13 10:05:27;;;;;;;10.23;6.22;;;;;;;32.76;33.93;99952.25;5059686;28;20041;-56
2021/07/13 10:07:54;;;;;;;11.07;6.07;;;;;;;32.75;33.64;99941.69;5052078;28;20052;-56
2021/07/13 10:10:21;;;;;;;7.00;5.35;;;;;;;32.72;32.36;99942.88;5065923;28;20056;-56
2021/07/13 10:12:49;;;;;;;6.95;6.15;;;;;;;32.75;32.64;99942.53;5065738;28;20036;-56
2021/07/13 10:15:14;;;;;;;9.68;6.15;;;;;;;32.46;34.55;99937.69;5065455;28;20044;-57
2021/07/13 10:17:41;;;;;;;8.07;6.18;;;;;;;32.78;34.13;99933.28;5064887;28;20210;-57
2021/07/13 10:20:09;;;;;;;7.93;5.80;;;;;;;32.76;33.35;99905.81;5045794;28;20057;-58
2021/07/13 10:22:41;;;;;;;6.60;5.35;;;;;;;32.80;32.79;99899.09;5047896;28;20060;-57
2021/07/13 10:25:08;;;;;;;10.43;5.97;;;;;;;32.97;32.83;99926.72;5065469;28;20124;-57
2021/07/13 10:27:37;;;;;;;8.13;5.68;;;;;;;32.60;33.32;99922.75;5053775;28;20325;-56
2021/07/13 10:30:08;;;;;;;7.20;5.55;;;;;;;32.36;34.76;99903.00;5063458;28;20044;-56
2021/07/13 10:32:41;;;;;;;7.97;5.50;;;;;;;32.81;31.93;99930.28;5065361;28;20286;-57
2021/07/13 10:35:30;;;;;;;7.25;6.07;;;;;;;32.92;32.66;99937.13;5065311;28;20051;-57
2021/07/13 10:38:20;;;;;;;6.20;5.60;;;;;;;32.74;32.18;99922.09;5065439;28;20051;-56
2021/07/13 10:40:48;;;;;;;7.07;5.90;;;;;;;32.96;33.29;99927.72;5065367;28;20044;-56
2021/07/13 10:43:16;;;;;;;9.13;6.10;;;;;;;32.86;32.55;99925.22;5065295;28;20044;-56
2021/07/13 10:45:42;;;;;;;8.85;5.85;;;;;;;33.03;32.75;99934.06;5065258;28;20091;-56
2021/07/13 10:48:12;;;;;;;8.38;6.13;;;;;;;32.72;34.61;99932.13;5065282;28;20048;-57
2021/07/13 10:50:41;;;;;;;6.90;6.25;;;;;;;32.96;34.08;99928.53;5065475;28;20056;-56
2021/07/13 10:53:14;;;;;;;8.57;6.18;;;;;;;32.81;35.02;99931.13;5064214;28;20033;-56
2021/07/13 10:55:40;;;;;;;9.50;6.50;;;;;;;32.82;32.38;99911.34;5057093;28;20049;-56
2021/07/13 10:58:09;;;;;;;8.30;6.55;;;;;;;33.03;32.69;99917.97;5047882;28;20044;-56
2021/07/13 11:00:50;;;;;;;6.78;6.07;;;;;;;32.81;33.95;99915.03;5044306;28;20466;-55
2021/07/13 11:03:34;;;;;;;7.10;5.82;;;;;;;32.71;34.67;99917.06;5048387;28;20270;-56
2021/07/13 11:06:12;;;;;;;10.05;6.13;;;;;;;32.46;34.39;99906.34;5064152;28;20053;-55
2021/07/13 11:08:47;;;;;;;7.70;5.72;;;;;;;32.80;33.12;99924.06;5064925;28;20051;-55
2021/07/13 11:11:22;;;;;;;8.52;6.75;;;;;;;32.56;34.49;99924.09;5064471;28;20052;-55
2021/07/13 11:14:02;;;;;;;6.60;5.53;;;;;;;32.83;33.00;99912.16;5064949;28;20056;-57
2021/07/13 11:16:39;;;;;;;13.10;6.50;;;;;;;32.95;34.17;99916.16;5064461;28;20097;-56
2021/07/13 11:19:15;;;;;;;9.40;6.20;;;;;;;32.64;31.97;99884.69;5064737;28;20040;-55
2021/07/13 11:21:44;;;;;;;8.57;7.07;;;;;;;32.83;32.76;99914.84;5064335;28;20041;-55
2021/07/13 11:24:13;;;;;;;8.52;6.43;;;;;;;32.79;33.53;99897.41;5064540;28;20037;-55
2021/07/13 11:26:43;;;;;;;12.23;6.40;;;;;;;32.80;33.04;99885.69;5064451;28;20044;-55
2021/07/13 11:29:18;;;;;;;8.45;6.05;;;;;;;32.82;32.80;99894.38;5064546;28;20045;-55